Terminal Aerodrome Forecast
Issued by NWS

Home | Current Version | Previous Version | Text Only | Print | Product List | Glossary On
Versions: 1 2 3 4 5 6 7 8 9 10 11 12 13 14 15 16 17 18 19 20 21 22 23 24
000
FTUS41 KILN 191000 AAB
TAFLUK
TAF AMD
KLUK 191014Z 1910/2006 06012KT P6SM FEW060 OVC120
     FM191300 10012G20KT P6SM -SHRA SCT028 OVC050
     FM191600 12014G24KT 5SM -SHRA OVC028
     FM192000 17012G20KT 4SM -SHRA OVC028
     FM200000 21012G20KT P6SM VCSH OVC020=

USA.gov is the U.S. government's official web portal to all federal, state and local government web resources and services.